createdAt,value
2023-05-02T00:05:06.806Z,1016.2
2023-05-02T00:11:12.848Z,1016.2
2023-05-02T00:17:19.292Z,1016.2
2023-05-02T00:23:24.853Z,1016.2
2023-05-02T00:29:30.137Z,1016.2
2023-05-02T00:35:35.751Z,1016.2
2023-05-02T00:41:41.288Z,1016.1
2023-05-02T00:47:46.897Z,1016.2
2023-05-02T00:53:52.630Z,1016.1
2023-05-02T00:59:58.802Z,1016.2
2023-05-02T01:06:04.813Z,1016.2
2023-05-02T01:12:10.786Z,1016.2
2023-05-02T01:18:16.759Z,1016.2
2023-05-02T01:24:22.379Z,1016.2
2023-05-02T01:30:27.584Z,1016.2
2023-05-02T01:36:32.733Z,1016.2
2023-05-02T01:42:37.611Z,1016.2
2023-05-02T01:48:43.570Z,1016.2
2023-05-02T01:54:48.755Z,1016.3
2023-05-02T02:00:54.592Z,1016.3
2023-05-02T02:07:00.130Z,1016.4
2023-05-02T02:13:05.658Z,1016.4
2023-05-02T02:19:11.042Z,1016.5
2023-05-02T02:25:17.041Z,1016.5
2023-05-02T02:31:22.478Z,1016.5
2023-05-02T02:37:28.774Z,1016.5
2023-05-02T02:43:34.148Z,1016.5
2023-05-02T02:49:40.190Z,1016.6
2023-05-02T02:55:45.172Z,1016.6
2023-05-02T03:01:51.164Z,1016.7
2023-05-02T03:07:56.866Z,1016.7
2023-05-02T03:14:01.685Z,1016.7
2023-05-02T03:20:06.417Z,1016.8
2023-05-02T03:26:12.342Z,1016.8
2023-05-02T03:32:17.599Z,1016.8
2023-05-02T03:38:23.497Z,1016.8
2023-05-02T03:44:28.933Z,1016.8
2023-05-02T03:50:34.279Z,1016.9
2023-05-02T03:56:43.090Z,1016.9
2023-05-02T04:02:49.508Z,1017
2023-05-02T04:08:55.671Z,1017.1
2023-05-02T04:15:01.073Z,1017.2
2023-05-02T04:21:07.017Z,1017.2
2023-05-02T04:27:16.054Z,1017.3
2023-05-02T04:33:21.860Z,1017.4
2023-05-02T04:39:27.694Z,1017.4
2023-05-02T04:45:32.993Z,1017.4
2023-05-02T04:51:39.177Z,1017.5
2023-05-02T04:57:44.973Z,1017.6
2023-05-02T05:03:51.262Z,1017.7
2023-05-02T05:09:57.202Z,1017.8
2023-05-02T05:16:03.377Z,1017.8
2023-05-02T05:22:08.882Z,1017.8
2023-05-02T05:28:15.059Z,1018
2023-05-02T05:34:20.498Z,1018
2023-05-02T05:40:26.066Z,1018.2
2023-05-02T05:46:31.898Z,1018.2
2023-05-02T05:52:37.782Z,1018.3
2023-05-02T05:58:44.051Z,1018.4
2023-05-02T06:04:49.737Z,1018.4
2023-05-02T06:10:56.137Z,1018.5
2023-05-02T06:17:01.497Z,1018.5
2023-05-02T06:23:07.486Z,1018.6
2023-05-02T06:29:13.297Z,1018.7
2023-05-02T06:35:18.622Z,1018.7
2023-05-02T06:41:24.855Z,1018.7
2023-05-02T06:47:30.492Z,1018.7
2023-05-02T06:53:35.942Z,1018.8
2023-05-02T06:59:41.938Z,1018.9
2023-05-02T07:05:47.370Z,1019
2023-05-02T07:11:52.864Z,1019
2023-05-02T07:17:58.534Z,1018.9
2023-05-02T07:24:03.816Z,1018.9
2023-05-02T07:30:10.048Z,1019
2023-05-02T07:36:15.376Z,1019
2023-05-02T07:42:21.356Z,1019
2023-05-02T07:48:29.584Z,1019
2023-05-02T07:54:35.772Z,1019.1
2023-05-02T08:00:41.967Z,1019.2
2023-05-02T08:06:47.193Z,1019.2
2023-05-02T08:12:53.108Z,1019.3
2023-05-02T08:18:59.096Z,1019.3
2023-05-02T08:25:04.477Z,1019.3
2023-05-02T08:31:10.672Z,1019.3
2023-05-02T08:37:16.224Z,1019.3
2023-05-02T08:43:22.406Z,1019.4
2023-05-02T08:49:28.824Z,1019.5
2023-05-02T08:55:35.207Z,1019.5
2023-05-02T09:01:40.588Z,1019.5
2023-05-02T09:07:47.170Z,1019.5
2023-05-02T09:13:52.835Z,1019.6
2023-05-02T09:19:58.545Z,1019.6
2023-05-02T09:26:04.497Z,1019.7
2023-05-02T09:32:10.428Z,1019.7
2023-05-02T09:38:16.084Z,1019.7
2023-05-02T09:44:21.499Z,1019.7
2023-05-02T09:50:26.768Z,1019.7
2023-05-02T09:56:32.819Z,1019.7
2023-05-02T10:02:39.598Z,1019.8
2023-05-02T10:08:45.117Z,1019.8
2023-05-02T10:14:49.651Z,1019.8
2023-05-02T10:20:56.324Z,1019.8
2023-05-02T10:27:02.075Z,1019.7
2023-05-02T10:33:07.863Z,1019.7
2023-05-02T10:39:13.821Z,1019.7
2023-05-02T10:45:19.264Z,1019.6
2023-05-02T10:51:24.613Z,1019.6
2023-05-02T10:57:29.919Z,1019.6
2023-05-02T11:03:35.985Z,1019.6
2023-05-02T11:09:41.464Z,1019.7
2023-05-02T11:15:47.666Z,1019.8
2023-05-02T11:21:53.042Z,1019.8
2023-05-02T11:27:59.228Z,1019.9
2023-05-02T11:34:04.843Z,1019.9
2023-05-02T11:40:10.787Z,1020
2023-05-02T11:46:16.221Z,1019.9
2023-05-02T11:52:22.732Z,1020
2023-05-02T11:58:28.162Z,1020
2023-05-02T12:04:33.362Z,1019.9
2023-05-02T12:10:39.303Z,1019.8
2023-05-02T12:16:45.130Z,1019.9
2023-05-02T12:22:51.204Z,1019.8
2023-05-02T12:28:56.784Z,1019.8
2023-05-02T12:35:02.964Z,1019.8
2023-05-02T12:41:08.754Z,1019.9
2023-05-02T12:47:15.392Z,1020
2023-05-02T12:53:21.936Z,1020
2023-05-02T12:59:27.366Z,1020.1
2023-05-02T13:05:33.153Z,1020.1
2023-05-02T13:11:38.874Z,1020.1
2023-05-02T13:17:44.613Z,1020.1
2023-05-02T13:23:51.041Z,1020.1
2023-05-02T13:29:57.088Z,1020
2023-05-02T13:36:02.814Z,1020
2023-05-02T13:42:09.064Z,1020
2023-05-02T13:48:14.375Z,1019.9
2023-05-02T13:54:19.945Z,1020
2023-05-02T14:00:25.492Z,1020.1
2023-05-02T14:06:31.702Z,1020
2023-05-02T14:12:36.858Z,1020.1
2023-05-02T14:18:42.886Z,1020.1
2023-05-02T14:24:48.189Z,1020.1
2023-05-02T14:30:54.208Z,1020.2
2023-05-02T14:36:59.885Z,1020.2
2023-05-02T14:43:06.360Z,1020.3
2023-05-02T14:49:12.326Z,1020.4
2023-05-02T14:55:18.304Z,1020.4
2023-05-02T15:01:24.146Z,1020.4
2023-05-02T15:07:30.158Z,1020.4
2023-05-02T15:13:35.860Z,1020.5
2023-05-02T15:19:41.500Z,1020.4
2023-05-02T15:25:46.785Z,1020.3
2023-05-02T15:31:53.089Z,1020.3
2023-05-02T15:37:58.550Z,1020.2
2023-05-02T15:44:03.947Z,1020.3
2023-05-02T15:50:09.925Z,1020.3
2023-05-02T15:56:15.344Z,1020.3
2023-05-02T16:02:20.640Z,1020.4
2023-05-02T16:08:26.468Z,1020.3
2023-05-02T16:14:31.980Z,1020.3
2023-05-02T16:20:37.848Z,1020.4
2023-05-02T16:26:43.944Z,1020.4
2023-05-02T16:32:49.108Z,1020.5
2023-05-02T16:38:54.529Z,1020.7
2023-05-02T16:45:00.058Z,1020.9
2023-05-02T16:51:06.272Z,1021.1
2023-05-02T16:57:11.679Z,1021.2
2023-05-02T17:03:17.411Z,1021.4
2023-05-02T17:09:23.167Z,1021.5
2023-05-02T17:15:28.593Z,1021.5
2023-05-02T17:21:35.125Z,1021.5
2023-05-02T17:27:42.987Z,1021.6
2023-05-02T17:33:49.174Z,1021.6
2023-05-02T17:39:54.789Z,1021.6
2023-05-02T17:46:00.759Z,1021.6
2023-05-02T17:52:05.929Z,1021.6
2023-05-02T17:58:11.843Z,1021.6
2023-05-02T18:04:17.620Z,1021.6
2023-05-02T18:10:23.616Z,1021.5
2023-05-02T18:16:29.568Z,1021.5
2023-05-02T18:22:34.971Z,1021.4
2023-05-02T18:28:42.600Z,1021.5
2023-05-02T18:34:48.979Z,1021.6
2023-05-02T18:40:54.192Z,1021.7
2023-05-02T18:47:00.129Z,1021.8
2023-05-02T18:53:05.967Z,1021.9
2023-05-02T18:59:11.470Z,1021.8
2023-05-02T19:05:17.290Z,1021.9
2023-05-02T19:11:23.037Z,1021.8
2023-05-02T19:17:29.019Z,1021.9
2023-05-02T19:23:34.269Z,1022.1
2023-05-02T19:29:40.557Z,1022.1
2023-05-02T19:35:46.324Z,1022.1
2023-05-02T19:41:52.104Z,1022.1
2023-05-02T19:47:59.024Z,1022.2
2023-05-02T19:54:05.515Z,1022.2
2023-05-02T20:00:11.092Z,1022.3
2023-05-02T20:06:17.264Z,1022.3
2023-05-02T20:12:23.063Z,1022.3
2023-05-02T20:18:28.857Z,1022.4
2023-05-02T20:24:35.227Z,1022.4
2023-05-02T20:30:41.605Z,1022.5
2023-05-02T20:36:47.077Z,1022.5
2023-05-02T20:42:52.769Z,1022.5
2023-05-02T20:48:59.009Z,1022.5
2023-05-02T20:55:04.937Z,1022.4
2023-05-02T21:01:10.974Z,1022.4
2023-05-02T21:07:16.505Z,1022.4
2023-05-02T21:13:22.742Z,1022.4
2023-05-02T21:19:28.240Z,1022.4
2023-05-02T21:25:34.227Z,1022.4
2023-05-02T21:31:39.882Z,1022.4
2023-05-02T21:37:46.590Z,1022.4
2023-05-02T21:43:52.056Z,1022.4
2023-05-02T21:49:57.550Z,1022.4
2023-05-02T21:56:04.022Z,1022.4
2023-05-02T22:02:10.180Z,1022.4
2023-05-02T22:08:16.154Z,1022.5
2023-05-02T22:14:33.586Z,1022.4
2023-05-02T22:20:49.571Z,1022.3
2023-05-02T22:26:55.954Z,1022.3
2023-05-02T22:33:00.802Z,1022.4
2023-05-02T22:39:07.556Z,1022.4
2023-05-02T22:45:12.694Z,1022.3
2023-05-02T22:51:19.065Z,1022.4
2023-05-02T22:57:24.875Z,1022.4
2023-05-02T23:03:30.987Z,1022.4
2023-05-02T23:09:37.056Z,1022.5
2023-05-02T23:15:42.885Z,1022.4
2023-05-02T23:21:48.574Z,1022.4
2023-05-02T23:27:54.421Z,1022.3
2023-05-02T23:33:59.937Z,1022.3
2023-05-02T23:40:06.635Z,1022.2
2023-05-02T23:46:12.931Z,1022.2
2023-05-02T23:52:18.541Z,1022.2
2023-05-02T23:58:24.668Z,1022.2
